createdAt,value
2022-11-08T00:00:01.000Z,96520
2022-11-08T00:05:01.000Z,96506
2022-11-08T00:10:01.000Z,96512
2022-11-08T00:15:01.000Z,96511
2022-11-08T00:20:01.000Z,96509
2022-11-08T00:25:01.000Z,96497
2022-11-08T00:30:01.000Z,96507
2022-11-08T00:35:01.000Z,96509
2022-11-08T00:40:01.000Z,96497
2022-11-08T00:45:01.000Z,96492
2022-11-08T00:50:01.000Z,96494
2022-11-08T00:55:01.000Z,96489
2022-11-08T01:00:01.000Z,96493
2022-11-08T01:05:01.000Z,96490
2022-11-08T01:10:01.000Z,96480
2022-11-08T01:15:01.000Z,96480
2022-11-08T01:20:01.000Z,96480
2022-11-08T01:25:01.000Z,96476
2022-11-08T01:30:01.000Z,96485
2022-11-08T01:35:01.000Z,96476
2022-11-08T01:40:01.000Z,96480
2022-11-08T01:45:01.000Z,96472
2022-11-08T01:50:01.000Z,96475
2022-11-08T01:55:01.000Z,96457
2022-11-08T02:00:01.000Z,96456
2022-11-08T02:05:01.000Z,96461
2022-11-08T02:10:01.000Z,96459
2022-11-08T02:15:01.000Z,96457
2022-11-08T02:20:01.000Z,96452
2022-11-08T02:25:01.000Z,96444
2022-11-08T02:30:01.000Z,96441
2022-11-08T02:35:01.000Z,96440
2022-11-08T02:40:01.000Z,96435
2022-11-08T02:45:01.000Z,96438
2022-11-08T02:50:01.000Z,96428
2022-11-08T02:55:01.000Z,96413
2022-11-08T03:00:01.000Z,96411
2022-11-08T03:05:01.000Z,96409
2022-11-08T03:10:01.000Z,96410
2022-11-08T03:15:01.000Z,96401
2022-11-08T03:20:01.000Z,96402
2022-11-08T03:25:01.000Z,96396
2022-11-08T03:30:01.000Z,96403
2022-11-08T03:35:01.000Z,96399
2022-11-08T03:40:01.000Z,96406
2022-11-08T03:45:01.000Z,96400
2022-11-08T03:50:01.000Z,96393
2022-11-08T03:55:01.000Z,96392
2022-11-08T04:00:01.000Z,96395
2022-11-08T04:05:01.000Z,96400
2022-11-08T04:10:01.000Z,96392
2022-11-08T04:15:01.000Z,96383
2022-11-08T04:20:01.000Z,96374
2022-11-08T04:25:01.000Z,96366
2022-11-08T04:30:01.000Z,96369
2022-11-08T04:35:01.000Z,96378
2022-11-08T04:40:01.000Z,96383
2022-11-08T04:45:01.000Z,96378
2022-11-08T04:50:01.000Z,96380
2022-11-08T04:55:01.000Z,96390
2022-11-08T05:00:01.000Z,96388
2022-11-08T05:05:01.000Z,96383
2022-11-08T05:10:01.000Z,96379
2022-11-08T05:15:01.000Z,96388
2022-11-08T05:20:01.000Z,96370
2022-11-08T05:25:01.000Z,96369
2022-11-08T05:30:01.000Z,96376
2022-11-08T05:35:01.000Z,96380
2022-11-08T05:40:01.000Z,96370
2022-11-08T05:45:01.000Z,96367
2022-11-08T05:50:01.000Z,96379
2022-11-08T05:55:01.000Z,96379
2022-11-08T06:00:01.000Z,96380
2022-11-08T06:05:01.000Z,96383
2022-11-08T06:10:01.000Z,96396
2022-11-08T06:15:01.000Z,96410
2022-11-08T06:20:01.000Z,96403
2022-11-08T06:25:01.000Z,96418
2022-11-08T06:30:01.000Z,96424
2022-11-08T06:35:01.000Z,96422
2022-11-08T06:40:01.000Z,96418
2022-11-08T06:45:01.000Z,96428
2022-11-08T06:50:01.000Z,96435
2022-11-08T06:55:01.000Z,96446
2022-11-08T07:00:01.000Z,96449
2022-11-08T07:05:01.000Z,96443
2022-11-08T07:10:01.000Z,96448
2022-11-08T07:15:01.000Z,96452
2022-11-08T07:20:01.000Z,96446
2022-11-08T07:25:01.000Z,96460
2022-11-08T07:30:01.000Z,96460
2022-11-08T07:35:01.000Z,96450
2022-11-08T07:40:01.000Z,96460
2022-11-08T07:45:01.000Z,96457
2022-11-08T07:50:01.000Z,96462
2022-11-08T07:55:01.000Z,96460
2022-11-08T08:00:01.000Z,96458
2022-11-08T08:05:01.000Z,96469
2022-11-08T08:10:01.000Z,96461
2022-11-08T08:15:01.000Z,96465
2022-11-08T08:20:01.000Z,96469
2022-11-08T08:25:01.000Z,96473
2022-11-08T08:30:01.000Z,96490
2022-11-08T08:35:01.000Z,96486
2022-11-08T08:40:01.000Z,96477
2022-11-08T08:45:01.000Z,96479
2022-11-08T08:50:01.000Z,96500
2022-11-08T08:55:01.000Z,96490
2022-11-08T09:05:01.000Z,96498
2022-11-08T09:10:01.000Z,96503
2022-11-08T09:15:01.000Z,96497
2022-11-08T09:20:01.000Z,96493
2022-11-08T09:25:01.000Z,96493
2022-11-08T09:30:01.000Z,96492
2022-11-08T09:35:01.000Z,96489
2022-11-08T09:40:01.000Z,96490
2022-11-08T09:45:01.000Z,96491
2022-11-08T09:50:01.000Z,96495
2022-11-08T09:55:01.000Z,96493
2022-11-08T10:00:01.000Z,96509
2022-11-08T10:05:01.000Z,96501
2022-11-08T10:10:01.000Z,96489
2022-11-08T10:15:01.000Z,96497
2022-11-08T10:20:01.000Z,96501
2022-11-08T10:25:01.000Z,96494
2022-11-08T10:30:01.000Z,96475
2022-11-08T10:35:01.000Z,96476
2022-11-08T10:40:01.000Z,96478
2022-11-08T10:45:01.000Z,96466
2022-11-08T10:50:01.000Z,96470
2022-11-08T10:55:01.000Z,96470
2022-11-08T11:00:01.000Z,96459
2022-11-08T11:05:01.000Z,96466
2022-11-08T11:10:01.000Z,96455
2022-11-08T11:15:01.000Z,96440
2022-11-08T11:20:01.000Z,96426
2022-11-08T11:25:01.000Z,96434
2022-11-08T11:30:01.000Z,96427
2022-11-08T11:35:01.000Z,96422
2022-11-08T11:40:01.000Z,96414
2022-11-08T11:45:01.000Z,96394
2022-11-08T11:50:01.000Z,96395
2022-11-08T11:55:01.000Z,96382
2022-11-08T12:00:01.000Z,96388
2022-11-08T12:05:01.000Z,96366
2022-11-08T12:10:01.000Z,96360
2022-11-08T12:15:01.000Z,96358
2022-11-08T12:20:01.000Z,96349
2022-11-08T12:25:01.000Z,96335
2022-11-08T12:30:01.000Z,96330
2022-11-08T12:35:01.000Z,96324
2022-11-08T12:40:01.000Z,96312
2022-11-08T12:45:01.000Z,96310
2022-11-08T12:50:01.000Z,96311
2022-11-08T12:55:01.000Z,96308
2022-11-08T13:00:01.000Z,96296
2022-11-08T13:05:01.000Z,96298
2022-11-08T13:10:01.000Z,96287
2022-11-08T13:15:01.000Z,96286
2022-11-08T13:20:01.000Z,96285
2022-11-08T13:25:01.000Z,96270
2022-11-08T13:30:01.000Z,96265
2022-11-08T13:35:01.000Z,96258
2022-11-08T13:40:01.000Z,96257
2022-11-08T13:45:01.000Z,96258
2022-11-08T13:50:01.000Z,96256
2022-11-08T13:55:01.000Z,96247
2022-11-08T14:00:01.000Z,96246
2022-11-08T14:05:01.000Z,96243
2022-11-08T14:10:01.000Z,96243
2022-11-08T14:15:01.000Z,96247
2022-11-08T14:20:01.000Z,96248
2022-11-08T14:25:01.000Z,96249
2022-11-08T14:30:01.000Z,96241
2022-11-08T14:35:01.000Z,96236
2022-11-08T14:40:01.000Z,96244
2022-11-08T14:45:01.000Z,96235
2022-11-08T14:50:01.000Z,96237
2022-11-08T14:55:01.000Z,96236
2022-11-08T15:00:01.000Z,96244
2022-11-08T15:05:01.000Z,96240
2022-11-08T15:10:01.000Z,96239
2022-11-08T15:15:01.000Z,96234
2022-11-08T15:20:01.000Z,96224
2022-11-08T15:25:01.000Z,96216
2022-11-08T15:30:01.000Z,96219
2022-11-08T15:35:01.000Z,96211
2022-11-08T15:40:01.000Z,96218
2022-11-08T15:45:01.000Z,96212
2022-11-08T15:50:01.000Z,96211
2022-11-08T15:55:01.000Z,96224
2022-11-08T16:00:01.000Z,96226
2022-11-08T16:05:01.000Z,96223
2022-11-08T16:10:01.000Z,96224
2022-11-08T16:15:01.000Z,96242
2022-11-08T16:20:01.000Z,96230
2022-11-08T16:25:01.000Z,96244
2022-11-08T16:30:01.000Z,96245
2022-11-08T16:35:01.000Z,96244
2022-11-08T16:40:01.000Z,96245
2022-11-08T16:45:01.000Z,96230
2022-11-08T16:50:01.000Z,96229
2022-11-08T16:55:01.000Z,96232
2022-11-08T17:00:01.000Z,96235
2022-11-08T17:05:01.000Z,96232
2022-11-08T17:10:01.000Z,96234
2022-11-08T17:15:01.000Z,96227
2022-11-08T17:20:01.000Z,96239
2022-11-08T17:25:01.000Z,96240
2022-11-08T17:30:01.000Z,96247
2022-11-08T17:35:01.000Z,96244
2022-11-08T17:40:01.000Z,96259
2022-11-08T17:45:01.000Z,96263
2022-11-08T17:50:01.000Z,96269
2022-11-08T17:55:01.000Z,96258
2022-11-08T18:00:01.000Z,96258
2022-11-08T18:05:01.000Z,96270
2022-11-08T18:10:01.000Z,96285
2022-11-08T18:15:01.000Z,96275
2022-11-08T18:20:01.000Z,96267
2022-11-08T18:25:01.000Z,96275
2022-11-08T18:30:01.000Z,96267
2022-11-08T18:35:01.000Z,96249
2022-11-08T18:40:01.000Z,96249
2022-11-08T18:45:01.000Z,96246
2022-11-08T18:50:01.000Z,96254
2022-11-08T18:55:01.000Z,96254
2022-11-08T19:00:01.000Z,96262
2022-11-08T19:05:01.000Z,96255
2022-11-08T19:10:01.000Z,96250
2022-11-08T19:15:01.000Z,96242
2022-11-08T19:20:01.000Z,96258
2022-11-08T19:25:01.000Z,96252
2022-11-08T19:30:01.000Z,96243
2022-11-08T19:35:00.000Z,96247
2022-11-08T19:40:00.000Z,96256
2022-11-08T19:45:00.000Z,96254
2022-11-08T19:50:00.000Z,96257
2022-11-08T19:55:00.000Z,96254
2022-11-08T20:00:00.000Z,96263
2022-11-08T20:05:00.000Z,96262
2022-11-08T20:10:00.000Z,96275
2022-11-08T20:15:00.000Z,96270
2022-11-08T20:20:00.000Z,96275
2022-11-08T20:25:00.000Z,96274
2022-11-08T20:30:00.000Z,96287
2022-11-08T20:35:00.000Z,96290
2022-11-08T20:40:00.000Z,96288
2022-11-08T20:45:00.000Z,96278
2022-11-08T20:50:00.000Z,96279
2022-11-08T20:55:00.000Z,96281
2022-11-08T21:00:00.000Z,96278
2022-11-08T21:05:00.000Z,96278
2022-11-08T21:10:00.000Z,96286
2022-11-08T21:15:00.000Z,96297
2022-11-08T21:20:00.000Z,96295
2022-11-08T21:25:00.000Z,96290
2022-11-08T21:30:00.000Z,96292
2022-11-08T21:35:00.000Z,96292
2022-11-08T21:40:00.000Z,96288
2022-11-08T21:45:00.000Z,96279
2022-11-08T21:50:00.000Z,96277
2022-11-08T21:55:00.000Z,96279
2022-11-08T22:00:00.000Z,96270
2022-11-08T22:05:00.000Z,96280
2022-11-08T22:10:00.000Z,96281
2022-11-08T22:15:00.000Z,96278
2022-11-08T22:20:00.000Z,96286
2022-11-08T22:25:00.000Z,96286
2022-11-08T22:30:00.000Z,96285
2022-11-08T22:35:00.000Z,96295
2022-11-08T22:40:00.000Z,96295
2022-11-08T22:45:00.000Z,96295
2022-11-08T22:50:00.000Z,96291
2022-11-08T22:55:00.000Z,96291
2022-11-08T23:00:00.000Z,96297
2022-11-08T23:05:00.000Z,96276
2022-11-08T23:10:00.000Z,96274
2022-11-08T23:15:00.000Z,96277
2022-11-08T23:20:00.000Z,96302
2022-11-08T23:25:00.000Z,96299
2022-11-08T23:30:00.000Z,96286
2022-11-08T23:35:00.000Z,96285
2022-11-08T23:40:00.000Z,96282
2022-11-08T23:45:00.000Z,96285
2022-11-08T23:50:00.000Z,96287
2022-11-08T23:55:00.000Z,96281
